createdAt,value
2017-03-11T00:00:02.857Z,68.48
2017-03-11T00:01:04.120Z,68.77
2017-03-11T00:02:05.377Z,69.05
2017-03-11T00:03:06.680Z,69.24
2017-03-11T00:04:08.051Z,69.34
2017-03-11T00:05:09.317Z,69.62
2017-03-11T00:06:10.544Z,69.71
2017-03-11T00:07:11.796Z,69.53
2017-03-11T00:08:13.035Z,69.71
2017-03-11T00:09:14.404Z,69.91
2017-03-11T00:10:15.684Z,70.1
2017-03-11T00:11:16.948Z,70.06
2017-03-11T00:12:18.190Z,70.15
2017-03-11T00:13:19.445Z,70.15
2017-03-11T00:14:20.690Z,70.06
2017-03-11T00:15:22.204Z,69.96
2017-03-11T00:16:23.479Z,70.35
2017-03-11T00:17:24.723Z,70.54
2017-03-11T00:18:25.984Z,70.73
2017-03-11T00:19:27.284Z,71.2
2017-03-11T00:20:28.500Z,71.11
2017-03-11T00:21:29.774Z,71.39
2017-03-11T00:22:31.035Z,71.11
2017-03-11T00:23:32.264Z,71.3
2017-03-11T00:24:33.510Z,71.39
2017-03-11T00:25:34.852Z,71.77
2017-03-11T00:26:36.097Z,71.96
2017-03-11T00:27:37.350Z,71.86
2017-03-11T00:28:38.566Z,71.86
2017-03-11T00:29:39.805Z,71.96
2017-03-11T00:30:41.042Z,72.44
2017-03-11T00:31:42.368Z,72.15
2017-03-11T00:32:43.605Z,72.25
2017-03-11T00:33:44.892Z,72.63
2017-03-11T00:34:46.168Z,72.81
2017-03-11T00:35:47.483Z,72.81
2017-03-11T00:36:48.767Z,73
2017-03-11T00:37:50.188Z,72.72
2017-03-11T00:38:51.442Z,73.38
2017-03-11T00:39:52.760Z,73.57
2017-03-11T00:40:54.090Z,73.29
2017-03-11T00:41:55.357Z,73.29
2017-03-11T00:42:56.681Z,73.57
2017-03-11T00:43:58.035Z,73.38
2017-03-11T00:44:59.398Z,73.67
2017-03-11T00:46:00.655Z,73.48
2017-03-11T00:47:01.933Z,73.19
2017-03-11T00:48:03.206Z,73.76
2017-03-11T00:49:04.551Z,73.44
2017-03-11T00:50:05.880Z,73.48
2017-03-11T00:51:07.094Z,73.67
2017-03-11T00:52:08.376Z,73.76
2017-03-11T00:53:09.617Z,73.96
2017-03-11T00:54:10.869Z,73.96
2017-03-11T00:55:12.176Z,73.96
2017-03-11T00:56:13.642Z,74.05
2017-03-11T00:57:14.857Z,74.05
2017-03-11T00:58:16.132Z,74.24
2017-03-11T00:59:17.413Z,74.15
2017-03-11T01:00:18.695Z,74.05
2017-03-11T01:01:20.018Z,74.33
2017-03-11T01:02:21.260Z,74.15
2017-03-11T01:03:22.511Z,74.05
2017-03-11T01:04:23.881Z,74.05
2017-03-11T01:05:25.249Z,74.05
2017-03-11T01:06:26.520Z,73.86
2017-03-11T01:07:27.917Z,73.96
2017-03-11T01:08:29.290Z,73.86
2017-03-11T01:09:30.581Z,73.86
2017-03-11T01:10:31.840Z,73.96
2017-03-11T01:11:33.169Z,74.15
2017-03-11T01:12:34.408Z,74.33
2017-03-11T01:13:35.813Z,74.24
2017-03-11T01:14:37.051Z,74.43
2017-03-11T01:15:38.308Z,74.24
2017-03-11T01:16:39.662Z,73.96
2017-03-11T01:17:40.889Z,73.96
2017-03-11T01:18:42.132Z,74.15
2017-03-11T01:19:43.407Z,74.33
2017-03-11T01:20:44.649Z,74.62
2017-03-11T01:21:45.962Z,74.71
2017-03-11T01:22:47.248Z,73.96
2017-03-11T01:23:48.572Z,74.52
2017-03-11T01:24:49.992Z,74.15
2017-03-11T01:25:51.289Z,74.43
2017-03-11T01:26:52.540Z,74.15
2017-03-11T01:27:53.813Z,74.24
2017-03-11T01:28:55.092Z,74.05
2017-03-11T01:29:56.362Z,73.96
2017-03-11T01:30:57.627Z,73.76
2017-03-11T01:31:58.852Z,74.15
2017-03-11T01:33:00.162Z,73.86
2017-03-11T01:34:01.422Z,74.33
2017-03-11T01:35:02.681Z,74.15
2017-03-11T01:36:04.054Z,73.86
2017-03-11T01:37:05.297Z,73.96
2017-03-11T01:38:06.574Z,73.76
2017-03-11T01:39:07.843Z,73.96
2017-03-11T01:40:09.115Z,73.67
2017-03-11T01:41:10.444Z,73.67
2017-03-11T01:42:11.779Z,73.67
2017-03-11T01:43:13.037Z,73.76
2017-03-11T01:44:14.380Z,73.67
2017-03-11T01:45:15.609Z,73.96
2017-03-11T01:46:16.879Z,73.76
2017-03-11T01:47:18.167Z,73.86
2017-03-11T01:48:19.461Z,73.86
2017-03-11T01:49:20.727Z,73.86
2017-03-11T01:50:21.999Z,73.86
2017-03-11T01:51:23.252Z,73.67
2017-03-11T01:52:24.489Z,73.96
2017-03-11T01:53:25.742Z,74.05
2017-03-11T01:54:27.059Z,73.96
2017-03-11T01:55:28.289Z,74.24
2017-03-11T01:56:29.569Z,74.15
2017-03-11T01:57:30.807Z,73.82
2017-03-11T01:58:32.078Z,73.92
2017-03-11T01:59:33.333Z,74.01
2017-03-11T02:00:34.608Z,74.58
2017-03-11T02:01:36.008Z,74.39
2017-03-11T02:02:37.270Z,74.3
2017-03-11T02:03:38.574Z,74.3
2017-03-11T02:04:39.833Z,74.49
2017-03-11T02:05:41.133Z,74.3
2017-03-11T02:06:42.473Z,74.3
2017-03-11T02:07:43.808Z,74.68
2017-03-11T02:08:45.101Z,74.49
2017-03-11T02:09:46.339Z,74.11
2017-03-11T02:10:47.582Z,74.3
2017-03-11T02:11:48.868Z,74.49
2017-03-11T02:12:50.264Z,74.3
2017-03-11T02:13:51.655Z,74.58
2017-03-11T02:14:52.910Z,74.58
2017-03-11T02:15:54.219Z,74.49
2017-03-11T02:16:55.510Z,74.68
2017-03-11T02:17:56.804Z,74.58
2017-03-11T02:18:58.403Z,74.3
2017-03-11T02:19:59.653Z,74.11
2017-03-11T02:21:00.909Z,74.3
2017-03-11T02:22:02.266Z,74.3
2017-03-11T02:23:03.588Z,74.49
2017-03-11T02:24:04.865Z,74.58
2017-03-11T02:25:06.145Z,74.49
2017-03-11T02:26:07.440Z,74.68
2017-03-11T02:27:08.800Z,74.39
2017-03-11T02:28:10.098Z,74.3
2017-03-11T02:29:11.448Z,73.82
2017-03-11T02:30:12.762Z,74.58
2017-03-11T02:31:14.102Z,74.2
2017-03-11T02:32:15.388Z,74.3
2017-03-11T02:33:16.689Z,74.01
2017-03-11T02:34:18.037Z,74.01
2017-03-11T02:35:19.309Z,74.39
2017-03-11T02:36:20.618Z,74.2
2017-03-11T02:37:21.852Z,74.3
2017-03-11T02:38:23.109Z,74.68
2017-03-11T02:39:24.462Z,74.77
2017-03-11T02:40:25.719Z,74.49
2017-03-11T02:41:27.082Z,74.3
2017-03-11T02:42:28.414Z,74.68
2017-03-11T02:43:29.726Z,74.58
2017-03-11T02:44:30.993Z,74.96
2017-03-11T02:45:32.258Z,74.39
2017-03-11T02:46:33.574Z,74.49
2017-03-11T02:47:34.875Z,74.87
2017-03-11T02:48:36.228Z,74.87
2017-03-11T02:49:37.470Z,74.68
2017-03-11T02:50:38.766Z,74.58
2017-03-11T02:51:40.045Z,74.96
2017-03-11T02:52:41.304Z,74.96
2017-03-11T02:53:42.578Z,75.15
2017-03-11T02:54:43.810Z,74.77
2017-03-11T02:55:45.073Z,75.05
2017-03-11T02:56:46.406Z,75.05
2017-03-11T02:57:47.704Z,74.58
2017-03-11T02:58:48.938Z,75.15
2017-03-11T02:59:50.219Z,74.58
2017-03-11T03:00:51.578Z,75.05
2017-03-11T03:01:52.879Z,75.05
2017-03-11T03:02:54.152Z,74.58
2017-03-11T03:03:55.556Z,75.05
2017-03-11T03:04:56.823Z,74.68
2017-03-11T03:05:58.078Z,74.77
2017-03-11T03:06:59.352Z,74.68
2017-03-11T03:08:00.669Z,74.77
2017-03-11T03:09:02.015Z,75.24
2017-03-11T03:10:03.263Z,75.24
2017-03-11T03:11:04.574Z,75.24
2017-03-11T03:12:05.878Z,75.05
2017-03-11T03:13:07.226Z,75.24
2017-03-11T03:14:08.480Z,75.24
2017-03-11T03:15:09.801Z,75.05
2017-03-11T03:16:11.038Z,75.24
2017-03-11T03:17:12.422Z,75.15
2017-03-11T03:18:13.700Z,75.15
2017-03-11T03:19:15.030Z,75.05
2017-03-11T03:20:16.388Z,75.05
2017-03-11T03:21:17.677Z,75.53
2017-03-11T03:22:19.005Z,75.53
2017-03-11T03:23:20.271Z,75.62
2017-03-11T03:24:21.529Z,75.24
2017-03-11T03:25:22.792Z,75.34
2017-03-11T03:26:24.152Z,75.05
2017-03-11T03:27:25.363Z,75.24
2017-03-11T03:28:26.667Z,75.34
2017-03-11T03:29:27.987Z,75.05
2017-03-11T03:30:29.234Z,75.34
2017-03-11T03:31:30.519Z,75.34
2017-03-11T03:32:31.816Z,75.24
2017-03-11T03:33:33.095Z,75.05
2017-03-11T03:34:34.386Z,75.34
2017-03-11T03:35:35.672Z,75.34
2017-03-11T03:36:36.956Z,75.05
2017-03-11T03:37:38.214Z,75.15
2017-03-11T03:38:39.570Z,74.87
2017-03-11T03:39:40.832Z,75.05
2017-03-11T03:40:42.128Z,74.58
2017-03-11T03:41:43.408Z,75.15
2017-03-11T03:42:44.740Z,75.05
2017-03-11T03:43:46.026Z,75.24
2017-03-11T03:44:47.322Z,75.24
2017-03-11T03:45:48.614Z,75.05
2017-03-11T03:46:49.925Z,75.15
2017-03-11T03:47:51.218Z,75.05
2017-03-11T03:48:52.462Z,75.05
2017-03-11T03:49:53.788Z,75.05
2017-03-11T03:50:55.027Z,75.43
2017-03-11T03:51:56.425Z,75.53
2017-03-11T03:52:57.728Z,75.34
2017-03-11T03:53:59.198Z,75.34
2017-03-11T03:55:00.402Z,75.72
2017-03-11T03:56:01.722Z,75.43
2017-03-11T03:57:02.976Z,76.01
2017-03-11T03:58:04.298Z,75.81
2017-03-11T03:59:05.618Z,75.62
2017-03-11T04:00:06.945Z,75.91
2017-03-11T04:01:08.246Z,75.72
2017-03-11T04:02:09.515Z,75.15
2017-03-11T04:03:10.864Z,75.34
2017-03-11T04:04:12.124Z,75.53
2017-03-11T04:05:13.460Z,75.34
2017-03-11T04:06:14.750Z,75.34
2017-03-11T04:07:15.988Z,75.34
2017-03-11T04:08:17.230Z,75.15
2017-03-11T04:09:18.489Z,75.24
2017-03-11T04:10:19.846Z,75.34
2017-03-11T04:11:21.371Z,75.24
2017-03-11T04:12:22.604Z,75.24
2017-03-11T04:13:23.861Z,75.53
2017-03-11T04:14:25.197Z,75.34
2017-03-11T04:15:26.468Z,75.53
2017-03-11T04:16:27.867Z,75.34
2017-03-11T04:17:29.242Z,75.15
2017-03-11T04:18:30.643Z,75.34
2017-03-11T04:19:32.019Z,75.15
2017-03-11T04:20:33.161Z,75.15
2017-03-11T04:21:34.578Z,75.15
2017-03-11T04:22:35.875Z,75.24
2017-03-11T04:23:37.144Z,75.34
2017-03-11T04:24:38.457Z,75.05
2017-03-11T04:25:39.912Z,75.43
2017-03-11T04:26:41.291Z,75.62
2017-03-11T04:27:42.485Z,75.43
2017-03-11T04:28:43.761Z,75.24
2017-03-11T04:29:45.063Z,75.15
2017-03-11T04:30:46.386Z,74.77
2017-03-11T04:31:47.772Z,74.96
2017-03-11T04:32:49.023Z,75.34
2017-03-11T04:33:50.301Z,75.43
2017-03-11T04:34:51.577Z,75.43
2017-03-11T04:35:52.872Z,75.43
2017-03-11T04:36:54.259Z,75.05
2017-03-11T04:37:55.547Z,75.53
2017-03-11T04:38:56.892Z,75.34
2017-03-11T04:39:58.145Z,75.53
2017-03-11T04:40:59.451Z,75.43
2017-03-11T04:42:00.752Z,75.53
2017-03-11T04:43:02.089Z,75.43
2017-03-11T04:44:03.400Z,75.43
2017-03-11T04:45:04.773Z,75.34
2017-03-11T04:46:06.158Z,75.15
2017-03-11T04:47:07.420Z,75.62
2017-03-11T04:48:08.733Z,75.34
2017-03-11T04:49:10.007Z,75.24
2017-03-11T04:50:11.243Z,75.43
2017-03-11T04:51:12.544Z,75.24
2017-03-11T04:52:13.874Z,75.15
2017-03-11T04:53:15.122Z,75.24
2017-03-11T04:54:16.404Z,75.53
2017-03-11T04:55:17.674Z,76.01
2017-03-11T04:56:19.023Z,75.72
2017-03-11T04:57:20.364Z,76.01
2017-03-11T04:58:21.859Z,76.2
2017-03-11T04:59:23.193Z,76.1
2017-03-11T05:00:24.516Z,76.67
2017-03-11T05:01:25.814Z,76.67
2017-03-11T05:02:27.263Z,76.48
2017-03-11T05:03:28.618Z,76.39
2017-03-11T05:04:29.889Z,76.57
2017-03-11T05:05:31.206Z,76.76
2017-03-11T05:06:32.463Z,77.05
2017-03-11T05:07:33.873Z,76.95
2017-03-11T05:08:35.231Z,77.05
2017-03-11T05:09:36.600Z,77.05
2017-03-11T05:10:37.908Z,76.86
2017-03-11T05:11:39.172Z,76.86
2017-03-11T05:12:40.395Z,77.24
2017-03-11T05:13:41.736Z,77.05
2017-03-11T05:14:43.038Z,76.76
2017-03-11T05:15:44.338Z,76.86
2017-03-11T05:16:45.621Z,77.05
2017-03-11T05:17:46.941Z,76.82
2017-03-11T05:18:48.233Z,76.57
2017-03-11T05:19:49.538Z,76.54
2017-03-11T05:20:50.815Z,76.92
2017-03-11T05:21:52.072Z,77.2
2017-03-11T05:22:53.346Z,77.01
2017-03-11T05:23:54.745Z,77.01
2017-03-11T05:24:56.096Z,76.73
2017-03-11T05:25:57.413Z,77.11
2017-03-11T05:26:58.640Z,77.86
2017-03-11T05:27:59.941Z,77.58
2017-03-11T05:29:01.254Z,77.48
2017-03-11T05:30:02.591Z,77.96
2017-03-11T05:31:03.863Z,77.96
2017-03-11T05:32:05.239Z,77.96
2017-03-11T05:33:06.491Z,78.34
2017-03-11T05:34:07.808Z,78.05
2017-03-11T05:35:09.147Z,78.34
2017-03-11T05:36:10.465Z,78.91
2017-03-11T05:37:11.788Z,79
2017-03-11T05:38:13.050Z,79.38
2017-03-11T05:39:14.299Z,79.28
2017-03-11T05:40:15.619Z,79.1
2017-03-11T05:41:16.847Z,79.38
2017-03-11T05:42:18.237Z,80.14
2017-03-11T05:43:19.590Z,80.14
2017-03-11T05:44:20.948Z,79.76
2017-03-11T05:45:22.204Z,80.04
2017-03-11T05:46:23.438Z,79.91
2017-03-11T05:47:24.805Z,80.29
2017-03-11T05:48:26.105Z,80.38
2017-03-11T05:49:27.407Z,80.95
2017-03-11T05:50:28.668Z,80.48
2017-03-11T05:51:29.916Z,80.48
2017-03-11T05:52:31.363Z,80.76
2017-03-11T05:53:32.699Z,80.57
2017-03-11T05:54:33.970Z,80.76
2017-03-11T05:55:35.222Z,81.24
2017-03-11T05:56:36.522Z,81.05
2017-03-11T05:57:37.830Z,80.95
2017-03-11T05:58:39.119Z,80.76
2017-03-11T05:59:40.458Z,81.05
2017-03-11T06:00:41.748Z,81.05
2017-03-11T06:01:43.088Z,80.86
2017-03-11T06:02:44.426Z,80.95
2017-03-11T06:03:45.696Z,81.14
2017-03-11T06:04:46.989Z,80.86
2017-03-11T06:05:48.367Z,80.95
2017-03-11T06:06:49.644Z,80.86
2017-03-11T06:07:50.894Z,80.57
2017-03-11T06:08:52.453Z,81.14
2017-03-11T06:09:53.767Z,81.05
2017-03-11T06:10:55.148Z,80.76
2017-03-11T06:11:56.376Z,81.05
2017-03-11T06:12:57.705Z,80.95
2017-03-11T06:13:58.987Z,81.14
2017-03-11T06:15:00.256Z,80.95
2017-03-11T06:16:01.667Z,81.05
2017-03-11T06:17:02.952Z,80.76
2017-03-11T06:18:04.187Z,80.57
2017-03-11T06:19:05.442Z,80.48
2017-03-11T06:20:06.732Z,80.67
2017-03-11T06:21:08.024Z,80.86
2017-03-11T06:22:09.345Z,80.57
2017-03-11T06:23:10.721Z,80.76
2017-03-11T06:24:12.109Z,80.8
2017-03-11T06:25:13.443Z,81.09
2017-03-11T06:26:14.760Z,80.33
2017-03-11T06:27:16.073Z,80.14
2017-03-11T06:28:17.351Z,80.24
2017-03-11T06:29:18.662Z,80.24
2017-03-11T06:30:19.961Z,80.33
2017-03-11T06:31:21.242Z,80.43
2017-03-11T06:32:22.533Z,80.43
2017-03-11T06:33:23.849Z,80.33
2017-03-11T06:34:25.108Z,79.76
2017-03-11T06:35:26.413Z,79.85
2017-03-11T06:36:27.670Z,79.38
2017-03-11T06:37:29.039Z,79
2017-03-11T06:38:30.274Z,79.38
2017-03-11T06:39:31.591Z,78.91
2017-03-11T06:40:32.863Z,79
2017-03-11T06:41:34.183Z,79.1
2017-03-11T06:42:35.505Z,78.72
2017-03-11T06:43:36.807Z,78.38
2017-03-11T06:44:38.022Z,78.19
2017-03-11T06:45:39.300Z,77.81
2017-03-11T06:46:40.558Z,77.9
2017-03-11T06:47:41.813Z,77.71
2017-03-11T06:48:43.068Z,77.05
2017-03-11T06:49:44.361Z,76.76
2017-03-11T06:50:45.690Z,76.86
2017-03-11T06:51:46.969Z,77.14
2017-03-11T06:52:48.227Z,77.14
2017-03-11T06:53:49.514Z,76.48
2017-03-11T06:54:50.876Z,76.48
2017-03-11T06:55:52.159Z,76.48
2017-03-11T06:56:53.422Z,76.39
2017-03-11T06:57:54.679Z,76.2
2017-03-11T06:58:55.938Z,76.01
2017-03-11T06:59:57.223Z,75.72
2017-03-11T07:00:58.548Z,75.62
2017-03-11T07:01:59.827Z,75.34
2017-03-11T07:03:01.129Z,74.87
2017-03-11T07:04:02.422Z,75.09
2017-03-11T07:05:03.646Z,74.9
2017-03-11T07:06:04.963Z,74.33
2017-03-11T07:07:06.347Z,74.05
2017-03-11T07:08:07.686Z,73.67
2017-03-11T07:09:08.995Z,73.38
2017-03-11T07:10:10.479Z,72.66
2017-03-11T07:11:11.844Z,72.47
2017-03-11T07:12:13.119Z,71.37
2017-03-11T07:13:14.432Z,70.23
2017-03-11T07:14:15.664Z,68.21
2017-03-11T07:15:16.922Z,66.11
2017-03-11T07:16:18.277Z,64.15
2017-03-11T07:17:19.660Z,61.8
2017-03-11T07:18:20.840Z,59.64
2017-03-11T07:19:22.113Z,57.76
2017-03-11T07:20:23.509Z,55.76
2017-03-11T07:21:24.854Z,54.07
2017-03-11T07:22:26.137Z,53.5
2017-03-11T07:23:27.452Z,52.48
2017-03-11T07:24:28.788Z,51.64
2017-03-11T07:25:30.121Z,50.02
2017-03-11T07:26:31.384Z,48.9
2017-03-11T07:27:32.708Z,47.85
2017-03-11T07:28:33.978Z,47.2
2017-03-11T07:29:35.252Z,46.08
2017-03-11T07:30:36.501Z,45.31
2017-03-11T07:31:37.736Z,44.76
2017-03-11T07:32:39.004Z,43.04
2017-03-11T07:33:40.423Z,42.01
2017-03-11T07:34:41.706Z,40.78
2017-03-11T07:35:43.005Z,39.92
2017-03-11T07:36:44.267Z,39.25
2017-03-11T07:37:45.551Z,38.6
2017-03-11T07:38:46.846Z,39.06
2017-03-11T07:39:48.168Z,38.96
2017-03-11T07:40:49.476Z,38.49
2017-03-11T07:41:50.839Z,39.5
2017-03-11T07:42:52.091Z,40.94
2017-03-11T07:43:53.443Z,40.58
2017-03-11T07:44:54.696Z,39.54
2017-03-11T07:45:56.043Z,38.87
2017-03-11T07:46:57.303Z,38.12
2017-03-11T07:47:58.734Z,37.45
2017-03-11T07:48:59.994Z,36.98
2017-03-11T07:50:01.302Z,36.98
2017-03-11T07:51:02.569Z,37.36
2017-03-11T07:52:03.824Z,37.07
2017-03-11T07:53:05.122Z,37.26
2017-03-11T07:54:06.406Z,37.07
2017-03-11T07:55:07.692Z,36.98
2017-03-11T07:56:09.127Z,36.61
2017-03-11T07:57:10.472Z,36.32
2017-03-11T07:58:11.758Z,35.38
2017-03-11T07:59:13.109Z,34.61
2017-03-11T08:00:14.404Z,34.33
2017-03-11T08:01:15.637Z,34.33
2017-03-11T08:02:16.945Z,34.42
2017-03-11T08:03:18.221Z,34.34
2017-03-11T08:04:19.496Z,33.58
2017-03-11T08:05:20.831Z,34.42
2017-03-11T08:06:22.311Z,34.61
2017-03-11T08:07:23.594Z,34.61
2017-03-11T08:08:24.830Z,34.15
2017-03-11T08:09:26.155Z,33.77
2017-03-11T08:10:27.413Z,33.69
2017-03-11T08:11:28.720Z,32.73
2017-03-11T08:12:30.011Z,31.79
2017-03-11T08:13:31.322Z,31.49
2017-03-11T08:14:32.668Z,30.84
2017-03-11T08:15:33.951Z,30.08
2017-03-11T08:16:35.228Z,29.43
2017-03-11T08:17:36.534Z,28.29
2017-03-11T08:18:37.884Z,27.92
2017-03-11T08:19:39.169Z,26.86
2017-03-11T08:20:40.441Z,26.29
2017-03-11T08:21:41.720Z,25.54
2017-03-11T08:22:43.006Z,25.44
2017-03-11T08:23:44.266Z,24.86
2017-03-11T08:24:45.555Z,25.62
2017-03-11T08:25:46.840Z,25.62
2017-03-11T08:26:48.134Z,25.63
2017-03-11T08:27:49.461Z,24.67
2017-03-11T08:28:50.741Z,25.05
2017-03-11T08:29:52.036Z,24.57
2017-03-11T08:30:53.317Z,24.48
2017-03-11T08:31:54.610Z,24.67
2017-03-11T08:32:55.890Z,24.67
2017-03-11T08:33:57.211Z,24.48
2017-03-11T08:34:58.518Z,24.38
2017-03-11T08:36:00.333Z,25.07
2017-03-11T08:37:01.644Z,23.72
2017-03-11T08:38:02.993Z,24.09
2017-03-11T08:39:04.369Z,24.46
2017-03-11T08:40:05.767Z,24.74
2017-03-11T08:41:07.013Z,25.62
2017-03-11T08:42:08.327Z,25.54
2017-03-11T08:43:09.617Z,24.96
2017-03-11T08:44:10.990Z,25.15
2017-03-11T08:45:12.415Z,24.76
2017-03-11T08:46:13.679Z,25.62
2017-03-11T08:47:15.012Z,25.15
2017-03-11T08:48:16.277Z,24.48
2017-03-11T08:49:17.546Z,24.01
2017-03-11T08:50:18.993Z,23.72
2017-03-11T08:51:20.355Z,23.52
2017-03-11T08:52:21.634Z,23.63
2017-03-11T08:53:22.939Z,22.67
2017-03-11T08:54:24.377Z,21.71
2017-03-11T08:55:25.584Z,21.82
2017-03-11T08:56:26.889Z,22.1
2017-03-11T08:57:28.169Z,22.19
2017-03-11T08:58:29.470Z,22.19
2017-03-11T08:59:30.827Z,21.81
2017-03-11T09:00:32.220Z,21.62
2017-03-11T09:01:33.398Z,21.99
2017-03-11T09:02:34.799Z,23.24
2017-03-11T09:03:36.035Z,22.67
2017-03-11T09:04:37.297Z,23.41
2017-03-11T09:05:38.575Z,23.72
2017-03-11T09:06:39.898Z,23.62
2017-03-11T09:07:41.129Z,23.24
2017-03-11T09:08:42.378Z,23.04
2017-03-11T09:09:43.647Z,23.03
2017-03-11T09:10:45.016Z,23.41
2017-03-11T09:11:46.285Z,24.28
2017-03-11T09:12:47.546Z,24.57
2017-03-11T09:13:48.899Z,24.09
2017-03-11T09:14:50.188Z,23.9
2017-03-11T09:15:51.474Z,23.91
2017-03-11T09:16:52.733Z,23.44
2017-03-11T09:17:54.002Z,22.67
2017-03-11T09:18:55.313Z,22.47
2017-03-11T09:19:56.713Z,21.71
2017-03-11T09:20:57.985Z,20.95
2017-03-11T09:21:59.289Z,20.86
2017-03-11T09:23:00.612Z,20.59
2017-03-11T09:24:01.961Z,19.62
2017-03-11T09:25:03.228Z,19.33
2017-03-11T09:26:04.553Z,20.18
2017-03-11T09:27:05.840Z,20.95
2017-03-11T09:28:07.158Z,20.57
2017-03-11T09:29:08.427Z,20.29
2017-03-11T09:30:09.792Z,20.18
2017-03-11T09:31:11.056Z,20.65
2017-03-11T09:32:12.343Z,20.65
2017-03-11T09:33:13.621Z,20.86
2017-03-11T09:34:15.011Z,20.67
2017-03-11T09:35:16.390Z,20.19
2017-03-11T09:36:17.719Z,20
2017-03-11T09:37:18.962Z,20.28
2017-03-11T09:38:20.211Z,20.08
2017-03-11T09:39:21.486Z,20
2017-03-11T09:40:22.793Z,20.39
2017-03-11T09:41:24.089Z,19.35
2017-03-11T09:42:25.363Z,18.38
2017-03-11T09:43:26.629Z,18
2017-03-11T09:44:27.932Z,17.43
2017-03-11T09:45:29.229Z,17.14
2017-03-11T09:46:30.496Z,17.04
2017-03-11T09:47:31.797Z,17.13
2017-03-11T09:48:33.072Z,17.4
2017-03-11T09:49:34.307Z,17.98
2017-03-11T09:50:35.621Z,18.66
2017-03-11T09:51:36.946Z,18.76
2017-03-11T09:52:38.456Z,18.94
2017-03-11T09:53:39.783Z,19.23
2017-03-11T09:54:41.050Z,18.96
2017-03-11T09:55:42.372Z,18
2017-03-11T09:56:43.617Z,17.62
2017-03-11T09:57:44.921Z,17.22
2017-03-11T09:58:46.223Z,17.32
2017-03-11T09:59:47.567Z,17.42
2017-03-11T10:00:48.845Z,17.22
2017-03-11T10:01:50.147Z,17.79
2017-03-11T10:02:51.433Z,18.76
2017-03-11T10:03:52.829Z,18.65
2017-03-11T10:04:54.103Z,19.13
2017-03-11T10:05:55.399Z,18.94
2017-03-11T10:06:56.734Z,18.76
2017-03-11T10:07:58.159Z,18.08
2017-03-11T10:08:59.344Z,18.26
2017-03-11T10:10:00.615Z,18.75
2017-03-11T10:11:01.895Z,19.21
2017-03-11T10:12:03.169Z,19.61
2017-03-11T10:13:04.465Z,19.71
2017-03-11T10:14:05.782Z,19.13
2017-03-11T10:15:07.086Z,18.67
2017-03-11T10:16:08.371Z,18
2017-03-11T10:17:09.645Z,17.61
2017-03-11T10:18:10.985Z,17.24
2017-03-11T10:19:12.365Z,16.77
2017-03-11T10:20:13.736Z,16
2017-03-11T10:21:14.937Z,15.62
2017-03-11T10:22:16.252Z,14.56
2017-03-11T10:23:17.558Z,14.37
2017-03-11T10:24:18.805Z,14.28
2017-03-11T10:25:20.116Z,14.18
2017-03-11T10:26:21.448Z,13.98
2017-03-11T10:27:22.673Z,14.25
2017-03-11T10:28:23.935Z,15.31
2017-03-11T10:29:25.259Z,15.21
2017-03-11T10:30:26.602Z,15.78
2017-03-11T10:31:27.976Z,16.83
2017-03-11T10:32:29.281Z,17.13
2017-03-11T10:33:30.651Z,16.85
2017-03-11T10:34:31.981Z,16.66
2017-03-11T10:35:33.288Z,16.47
2017-03-11T10:36:34.588Z,15.89
2017-03-11T10:37:35.904Z,15.7
2017-03-11T10:38:37.200Z,15.31
2017-03-11T10:39:38.485Z,15.11
2017-03-11T10:40:39.805Z,15.96
2017-03-11T10:41:41.111Z,16.84
2017-03-11T10:42:42.395Z,16.94
2017-03-11T10:43:43.685Z,16.66
2017-03-11T10:44:44.960Z,16.19
2017-03-11T10:45:46.399Z,15.99
2017-03-11T10:46:47.769Z,15.52
2017-03-11T10:47:49.025Z,15.22
2017-03-11T10:48:50.365Z,15.59
2017-03-11T10:49:51.779Z,16.27
2017-03-11T10:50:53.085Z,17.12
2017-03-11T10:51:54.435Z,17.89
2017-03-11T10:52:55.777Z,18.46
2017-03-11T10:53:57.051Z,19.22
2017-03-11T10:54:58.320Z,19.42
2017-03-11T10:55:59.621Z,20.19
2017-03-11T10:57:00.960Z,19.31
2017-03-11T10:58:02.296Z,19.98
2017-03-11T10:59:03.581Z,20.46
2017-03-11T11:00:04.865Z,20.26
2017-03-11T11:01:06.176Z,21.09
2017-03-11T11:02:07.567Z,22.73
2017-03-11T11:03:08.898Z,22.62
2017-03-11T11:04:10.202Z,23.11
2017-03-11T11:05:11.473Z,23.49
2017-03-11T11:06:12.794Z,24.16
2017-03-11T11:07:14.114Z,23.87
2017-03-11T11:08:15.497Z,25.02
2017-03-11T11:09:16.716Z,25.21
2017-03-11T11:10:18.029Z,25.11
2017-03-11T11:11:19.381Z,24.81
2017-03-11T11:12:20.694Z,25.87
2017-03-11T11:13:22.141Z,26.53
2017-03-11T11:14:23.484Z,27.48
2017-03-11T16:20:15.699Z,32.93
2017-03-11T16:21:17.249Z,32.84
2017-03-11T16:22:18.499Z,32.93
2017-03-11T16:23:19.739Z,33.31
2017-03-11T16:24:20.996Z,33.12
2017-03-11T16:25:22.264Z,33.03
2017-03-11T16:26:23.515Z,33.41
2017-03-11T16:27:24.779Z,33.31
2017-03-11T16:28:26.024Z,33.6
2017-03-11T16:29:27.274Z,33.89
2017-03-11T16:30:28.508Z,34.08
2017-03-11T16:31:29.771Z,34.08
2017-03-11T16:32:31.037Z,34.36
2017-03-11T16:33:32.367Z,34.65
2017-03-11T16:34:33.547Z,34.65
2017-03-11T16:35:34.812Z,34.75
2017-03-11T16:36:36.042Z,35.32
2017-03-11T16:37:37.288Z,35.03
2017-03-11T16:38:38.765Z,35.7
2017-03-11T16:39:40.020Z,36.08
2017-03-11T16:40:41.271Z,36.56
2017-03-11T16:41:42.531Z,37.04
2017-03-11T16:42:43.769Z,37.42
2017-03-11T16:43:45.041Z,37.99
2017-03-11T16:44:46.295Z,38.64
2017-03-11T16:45:47.584Z,38.93
2017-03-11T16:46:48.843Z,38.83
2017-03-11T16:47:50.118Z,39.22
2017-03-11T16:48:51.361Z,39.4
2017-03-11T16:49:52.677Z,39.69
2017-03-11T16:50:53.915Z,40.26
2017-03-11T16:51:55.137Z,40.36
2017-03-11T16:52:56.447Z,40.64
2017-03-11T16:53:57.716Z,41.6
2017-03-11T16:54:58.957Z,41.41
2017-03-11T16:56:00.215Z,41.5
2017-03-11T16:57:01.460Z,41.58
2017-03-11T16:58:02.872Z,41.98
2017-03-11T16:59:04.129Z,41.86
2017-03-11T17:00:05.370Z,41.77
2017-03-11T17:01:06.630Z,41.77
2017-03-11T17:02:07.873Z,42.15
2017-03-11T17:03:09.150Z,42.63
2017-03-11T17:04:10.399Z,42.53
2017-03-11T17:05:11.656Z,42.44
2017-03-11T17:06:12.993Z,43.2
2017-03-11T17:07:14.254Z,43.01
2017-03-11T17:08:15.508Z,43.29
2017-03-11T17:09:16.842Z,43.39
2017-03-11T17:10:18.231Z,43.27
2017-03-11T17:11:19.371Z,43.58
2017-03-11T17:12:20.610Z,43.65
2017-03-11T17:13:21.863Z,44.13
2017-03-11T17:14:23.177Z,43.94
2017-03-11T17:15:24.494Z,43.84
2017-03-11T17:16:25.721Z,44.8
2017-03-11T17:17:26.992Z,44.51
2017-03-11T17:18:28.258Z,44.99
2017-03-11T17:19:29.470Z,44.8
2017-03-11T17:20:30.711Z,44.7
2017-03-11T17:21:31.954Z,45.08
2017-03-11T17:22:33.238Z,45.08
2017-03-11T17:23:34.480Z,45.08
2017-03-11T17:24:35.720Z,45.28
2017-03-11T17:25:36.966Z,45.75
2017-03-11T17:26:38.244Z,45.44
2017-03-11T17:27:39.508Z,46.01
2017-03-11T17:28:40.759Z,46.2
2017-03-11T17:29:42.145Z,46.2
2017-03-11T17:30:43.279Z,46.78
2017-03-11T17:31:44.514Z,46.49
2017-03-11T17:32:45.759Z,47.06
2017-03-11T17:33:47.018Z,47.06
2017-03-11T17:34:48.266Z,46.87
2017-03-11T17:35:49.531Z,46.87
2017-03-11T17:36:50.816Z,46.68
2017-03-11T17:37:52.063Z,47.06
2017-03-11T17:38:53.309Z,47.16
2017-03-11T17:39:54.583Z,47.54
2017-03-11T17:40:55.828Z,47.44
2017-03-11T17:41:57.089Z,47.54
2017-03-11T17:42:58.336Z,47.8
2017-03-11T17:43:59.599Z,47.73
2017-03-11T17:45:00.839Z,47.63
2017-03-11T17:46:02.098Z,48.47
2017-03-11T17:47:03.452Z,48.18
2017-03-11T17:48:04.723Z,48.18
2017-03-11T17:49:05.993Z,48.27
2017-03-11T17:50:07.217Z,48.18
2017-03-11T17:51:08.480Z,48.47
2017-03-11T17:52:09.726Z,48.85
2017-03-11T17:53:10.976Z,48.85
2017-03-11T17:54:12.206Z,48.75
2017-03-11T17:55:13.452Z,49.51
2017-03-11T17:56:14.715Z,49.61
2017-03-11T17:57:15.997Z,48.75
2017-03-11T17:58:17.281Z,49.23
2017-03-11T17:59:18.524Z,48.56
2017-03-11T18:00:19.782Z,48.47
2017-03-11T18:01:21.019Z,48.94
2017-03-11T18:02:22.307Z,49.42
2017-03-11T18:03:23.560Z,49.13
2017-03-11T18:04:24.833Z,48.66
2017-03-11T18:05:26.064Z,49.3
2017-03-11T18:06:27.361Z,48.54
2017-03-11T18:07:28.634Z,48.73
2017-03-11T18:08:30.034Z,48.92
2017-03-11T18:09:31.212Z,49.11
2017-03-11T18:10:32.446Z,49.3
2017-03-11T18:11:33.697Z,49.58
2017-03-11T18:12:34.937Z,49.68
2017-03-11T18:13:36.183Z,50.06
2017-03-11T18:14:37.509Z,49.68
2017-03-11T18:15:38.759Z,50.06
2017-03-11T18:16:40.021Z,50.06